Time;durP1;ratioP1;P1;durP2;ratioP2;P2;SDS_P1;SDS_P2;PMS_P1;PMS_P2;Temp;Humidity;BMP_temperature;BMP_pressure;BME280_temperature;BME280_humidity;BME280_pressure;Samples;Min_cycle;Max_cycle;Signal;HPM_P1;HPM_P2
2023/02/09 00:00:11;;;;;;;4.50;3.20;;;4.40;99.90;;;;;;5034173;28;20763;-72
2023/02/09 00:02:42;;;;;;;4.68;2.70;;;4.40;99.90;;;;;;5035935;28;20263;-72
2023/02/09 00:05:11;;;;;;;4.28;3.00;;;4.50;99.90;;;;;;5037801;28;20303;-72
2023/02/09 00:07:40;;;;;;;4.40;3.13;;;4.40;99.90;;;;;;5038218;28;20225;-72
2023/02/09 00:10:09;;;;;;;5.75;3.80;;;4.40;99.90;;;;;;5046854;28;20660;-72
2023/02/09 00:15:23;;;;;;;4.10;3.55;;;4.40;99.90;;;;;;5043493;28;20220;-72
2023/02/09 00:17:53;;;;;;;5.05;3.80;;;4.40;99.90;;;;;;5038907;28;20225;-72
2023/02/09 00:20:22;;;;;;;5.28;4.10;;;4.40;99.90;;;;;;5042813;28;20300;-72
2023/02/09 00:22:50;;;;;;;4.72;3.65;;;4.40;99.90;;;;;;5045458;28;20693;-72
2023/02/09 00:25:19;;;;;;;4.90;3.30;;;4.40;99.90;;;;;;5044850;28;20228;-72
2023/02/09 00:27:47;;;;;;;5.22;3.40;;;4.40;99.90;;;;;;5044273;28;20703;-72
2023/02/09 00:30:18;;;;;;;3.78;3.20;;;4.40;99.90;;;;;;5043816;28;20189;-72
2023/02/09 00:32:46;;;;;;;5.30;4.20;;;4.30;99.90;;;;;;5041435;28;20316;-72
2023/02/09 00:35:17;;;;;;;5.72;4.15;;;4.30;99.90;;;;;;5039009;28;20307;-72
2023/02/09 00:37:45;;;;;;;5.30;4.25;;;4.30;99.90;;;;;;5042111;28;20330;-72
2023/02/09 00:40:13;;;;;;;5.82;3.70;;;4.30;99.90;;;;;;5036126;28;20205;-72
2023/02/09 00:42:42;;;;;;;6.32;3.60;;;4.30;99.90;;;;;;5045309;28;20279;-72
2023/02/09 00:45:10;;;;;;;3.75;3.33;;;4.30;99.90;;;;;;5034364;28;20221;-72
2023/02/09 00:47:39;;;;;;;5.55;3.72;;;4.30;99.90;;;;;;5030042;28;20359;-72
2023/02/09 00:50:08;;;;;;;4.47;3.30;;;4.40;99.90;;;;;;5037539;28;20664;-72
2023/02/09 00:52:40;;;;;;;5.70;4.10;;;4.30;99.90;;;;;;5043301;28;20199;-72
2023/02/09 00:55:09;;;;;;;5.78;4.13;;;4.30;99.90;;;;;;5042443;28;20219;-72
2023/02/09 00:57:41;;;;;;;6.75;3.58;;;4.30;99.90;;;;;;5044570;28;20196;-72
2023/02/09 01:00:12;;;;;;;4.70;3.60;;;4.30;99.90;;;;;;5040113;28;20200;-72
2023/02/09 01:02:41;;;;;;;6.60;4.15;;;4.30;99.90;;;;;;5018979;28;20217;-72
2023/02/09 01:05:09;;;;;;;5.35;3.58;;;4.30;99.90;;;;;;5035859;28;20221;-72
2023/02/09 01:07:39;;;;;;;8.70;5.18;;;4.30;99.90;;;;;;5054205;28;20208;-72
2023/02/09 01:10:08;;;;;;;7.40;5.05;;;4.30;99.90;;;;;;5037974;28;20425;-72
2023/02/09 01:12:40;;;;;;;6.38;4.50;;;4.30;99.90;;;;;;5044712;28;20193;-72
2023/02/09 01:15:10;;;;;;;5.43;4.35;;;4.30;99.90;;;;;;5045244;28;20731;-72
2023/02/09 01:17:39;;;;;;;5.80;4.38;;;4.30;99.90;;;;;;5035001;28;20592;-72
2023/02/09 01:20:10;;;;;;;5.65;3.85;;;4.20;99.90;;;;;;5042457;28;20205;-72
2023/02/09 01:22:40;;;;;;;7.25;4.18;;;4.20;99.90;;;;;;5037374;28;20185;-72
2023/02/09 01:25:10;;;;;;;5.25;3.78;;;4.30;99.90;;;;;;5044416;28;20254;-72
2023/02/09 01:27:38;;;;;;;5.13;3.58;;;4.20;99.90;;;;;;5048603;28;20707;-72
2023/02/09 01:30:10;;;;;;;5.85;4.20;;;4.30;99.90;;;;;;5039061;28;20395;-72
2023/02/09 01:32:38;;;;;;;6.97;4.35;;;4.20;99.90;;;;;;5037283;28;20945;-72
2023/02/09 01:35:07;;;;;;;4.82;3.25;;;4.30;99.90;;;;;;5033541;28;20588;-72
2023/02/09 01:37:37;;;;;;;6.68;4.55;;;4.20;99.90;;;;;;5039065;28;20235;-72
2023/02/09 01:40:09;;;;;;;6.65;4.70;;;4.30;99.90;;;;;;5043918;28;20246;-72
2023/02/09 01:42:38;;;;;;;6.07;4.18;;;4.30;99.90;;;;;;5036996;28;20214;-72
2023/02/09 01:45:16;;;;;;;5.07;3.90;;;4.30;99.90;;;;;;5037809;28;20226;-72
2023/02/09 01:47:49;;;;;;;9.48;3.80;;;4.30;99.90;;;;;;5035983;28;20476;-72
2023/02/09 01:50:19;;;;;;;5.88;4.13;;;4.30;99.90;;;;;;5042139;28;20201;-72
2023/02/09 01:52:49;;;;;;;5.15;3.95;;;4.30;99.90;;;;;;5020114;28;20185;-72
2023/02/09 01:55:23;;;;;;;4.70;3.03;;;4.30;99.90;;;;;;5036967;28;20221;-72
2023/02/09 01:57:56;;;;;;;5.57;4.10;;;4.30;99.90;;;;;;5039521;28;20212;-72
2023/02/09 02:00:25;;;;;;;4.85;2.90;;;4.30;99.90;;;;;;5038640;28;20221;-72
2023/02/09 02:02:57;;;;;;;3.70;3.05;;;4.30;99.90;;;;;;5033887;28;20617;-72
2023/02/09 02:05:27;;;;;;;3.72;3.08;;;4.30;99.90;;;;;;5033123;28;20605;-72
2023/02/09 02:08:00;;;;;;;4.18;3.75;;;4.30;99.90;;;;;;5035697;28;20198;-72
2023/02/09 02:10:31;;;;;;;4.45;2.95;;;4.40;99.90;;;;;;5024155;28;20290;-72
2023/02/09 02:13:01;;;;;;;4.65;3.53;;;4.40;99.90;;;;;;5039369;28;20264;-72
2023/02/09 02:15:34;;;;;;;4.00;3.28;;;4.40;99.90;;;;;;5041643;28;20232;-72
2023/02/09 02:18:18;;;;;;;3.53;2.88;;;4.30;99.90;;;;;;5031421;28;20359;-72
2023/02/09 02:21:21;;;;;;;5.63;3.72;;;4.40;99.90;;;;;;5044741;28;20197;-72
2023/02/09 02:24:03;;;;;;;5.40;3.00;;;4.40;99.90;;;;;;5057614;28;20212;-72
2023/02/09 02:26:54;;;;;;;5.20;3.25;;;4.30;99.90;;;;;;5038406;28;20201;-72
2023/02/09 02:29:48;;;;;;;4.13;2.80;;;4.40;99.90;;;;;;5030714;28;20707;-72
2023/02/09 02:32:28;;;;;;;3.83;3.25;;;4.40;99.90;;;;;;5019610;28;20200;-72
2023/02/09 02:35:02;;;;;;;5.55;2.95;;;4.30;99.90;;;;;;5037839;28;20700;-72
2023/02/09 02:37:45;;;;;;;3.60;3.03;;;4.30;99.90;;;;;;5040337;28;20254;-71
2023/02/09 02:40:25;;;;;;;3.75;2.67;;;4.30;99.90;;;;;;5040061;28;20258;-72
2023/02/09 02:42:58;;;;;;;5.00;3.60;;;4.30;99.90;;;;;;5032519;28;20725;-72
2023/02/09 02:45:38;;;;;;;4.90;3.45;;;4.30;99.90;;;;;;5034304;28;20244;-72
2023/02/09 02:48:18;;;;;;;4.88;3.65;;;4.30;99.90;;;;;;5037776;28;20319;-72
2023/02/09 02:50:54;;;;;;;3.20;2.90;;;4.30;99.90;;;;;;5038765;28;20564;-72
2023/02/09 02:53:27;;;;;;;5.60;3.40;;;4.30;99.90;;;;;;5040874;28;20269;-72
2023/02/09 02:56:00;;;;;;;3.50;3.20;;;4.30;99.90;;;;;;5032816;28;20221;-71
2023/02/09 02:58:31;;;;;;;3.85;2.97;;;4.30;99.90;;;;;;5041467;28;20644;-72
2023/02/09 03:01:01;;;;;;;4.10;3.58;;;4.30;99.90;;;;;;5034530;28;20295;-71
2023/02/09 03:03:35;;;;;;;4.10;3.67;;;4.30;99.90;;;;;;5027469;28;20220;-71
2023/02/09 03:06:06;;;;;;;5.07;3.50;;;4.30;99.90;;;;;;5041962;28;20220;-71
2023/02/09 03:08:51;;;;;;;4.30;3.40;;;4.30;99.90;;;;;;5039380;28;20304;-67
2023/02/09 03:11:21;;;;;;;5.38;4.25;;;4.30;99.90;;;;;;5034562;28;20597;-67
2023/02/09 03:14:11;;;;;;;5.57;3.70;;;4.30;99.90;;;;;;5045823;28;20221;-67
2023/02/09 03:16:45;;;;;;;4.68;3.47;;;4.30;99.90;;;;;;5036826;28;20200;-67
2023/02/09 03:19:25;;;;;;;5.15;3.67;;;4.30;99.90;;;;;;5039055;28;20232;-67
2023/02/09 03:21:57;;;;;;;5.93;3.50;;;4.30;99.90;;;;;;5044395;28;20239;-67
2023/02/09 03:24:36;;;;;;;6.50;4.95;;;4.20;99.90;;;;;;5042282;28;20264;-68
2023/02/09 03:27:13;;;;;;;4.43;3.47;;;4.30;99.90;;;;;;5042701;28;20233;-67
2023/02/09 03:29:44;;;;;;;5.22;3.33;;;4.20;99.90;;;;;;5048856;28;20192;-67
2023/02/09 03:32:14;;;;;;;4.10;3.22;;;4.30;99.90;;;;;;5049357;28;20197;-67
2023/02/09 03:34:44;;;;;;;4.05;3.15;;;4.20;99.90;;;;;;5047983;28;20700;-67
2023/02/09 03:37:13;;;;;;;4.20;3.60;;;4.20;99.90;;;;;;5049289;28;20289;-71
2023/02/09 03:39:42;;;;;;;5.00;3.67;;;4.20;99.90;;;;;;5041403;28;20227;-72
2023/02/09 03:42:10;;;;;;;5.57;3.45;;;4.20;99.90;;;;;;5040296;28;20230;-71
2023/02/09 03:44:39;;;;;;;4.28;3.35;;;4.20;99.90;;;;;;5042561;28;20217;-72
2023/02/09 03:47:09;;;;;;;5.50;3.40;;;4.20;99.90;;;;;;5045248;28;20672;-72
2023/02/09 03:49:40;;;;;;;4.65;3.47;;;4.20;99.90;;;;;;5048230;28;20270;-72
2023/02/09 03:52:12;;;;;;;4.53;3.35;;;4.20;99.90;;;;;;5049306;28;20619;-72
2023/02/09 03:54:41;;;;;;;4.70;3.15;;;4.30;99.90;;;;;;5037443;28;20716;-72
2023/02/09 03:57:10;;;;;;;4.85;3.13;;;4.30;99.90;;;;;;5021900;28;20657;-72
2023/02/09 03:59:38;;;;;;;4.88;3.58;;;4.30;99.90;;;;;;5043995;28;20224;-72
2023/02/09 04:02:08;;;;;;;4.72;3.90;;;4.20;99.90;;;;;;5043636;28;20751;-72
2023/02/09 04:04:37;;;;;;;5.05;3.72;;;4.30;99.90;;;;;;5039053;28;20220;-71
2023/02/09 04:07:05;;;;;;;6.55;3.65;;;4.20;99.90;;;;;;5047385;28;20407;-72
2023/02/09 04:09:36;;;;;;;5.97;3.90;;;4.20;99.90;;;;;;5040955;28;20257;-71
2023/02/09 04:12:07;;;;;;;6.40;3.28;;;4.20;99.90;;;;;;5042566;28;20339;-71
2023/02/09 04:14:36;;;;;;;4.13;2.90;;;4.20;99.90;;;;;;5036346;28;20280;-71
2023/02/09 04:17:04;;;;;;;3.83;3.42;;;4.20;99.90;;;;;;5041489;28;20189;-72
2023/02/09 04:19:32;;;;;;;3.97;2.80;;;4.20;99.90;;;;;;5034678;28;20229;-71
2023/02/09 04:22:01;;;;;;;3.65;2.63;;;4.20;99.90;;;;;;5041540;28;20255;-71
2023/02/09 04:24:29;;;;;;;3.33;3.03;;;4.20;99.90;;;;;;5036029;28;21293;-72
2023/02/09 04:26:59;;;;;;;4.15;3.30;;;4.20;99.90;;;;;;5038797;28;20196;-71
2023/02/09 04:29:30;;;;;;;4.32;3.15;;;4.20;99.90;;;;;;5043234;28;20201;-72
2023/02/09 04:31:58;;;;;;;4.82;3.13;;;4.20;99.90;;;;;;5044940;28;20213;-72
2023/02/09 04:34:27;;;;;;;4.75;2.92;;;4.20;99.90;;;;;;5036144;28;20216;-72
2023/02/09 04:36:55;;;;;;;4.95;3.70;;;4.20;99.90;;;;;;5045891;28;20197;-72
2023/02/09 04:39:23;;;;;;;4.40;3.53;;;4.20;99.90;;;;;;5034151;28;20252;-72
2023/02/09 04:41:52;;;;;;;5.25;3.15;;;4.20;99.90;;;;;;5040863;28;20404;-72
2023/02/09 04:44:21;;;;;;;3.58;2.95;;;4.20;99.90;;;;;;5043591;28;20312;-72
2023/02/09 04:46:50;;;;;;;4.18;3.25;;;4.20;99.90;;;;;;5036806;28;20291;-72
2023/02/09 04:49:18;;;;;;;3.78;2.85;;;4.20;99.90;;;;;;5039994;28;20193;-72
2023/02/09 04:51:46;;;;;;;5.45;3.17;;;4.20;99.90;;;;;;5037690;28;20216;-72
2023/02/09 04:54:15;;;;;;;4.95;3.58;;;4.20;99.90;;;;;;5033504;28;20763;-71
2023/02/09 04:56:43;;;;;;;3.95;3.20;;;4.20;99.90;;;;;;5041064;28;20205;-72
2023/02/09 05:01:59;;;;;;;4.78;2.92;;;4.10;99.90;;;;;;5044132;28;20568;-72
2023/02/09 05:04:27;;;;;;;4.63;3.22;;;4.10;99.90;;;;;;5039071;28;20704;-72
2023/02/09 05:06:56;;;;;;;3.03;2.45;;;4.20;99.90;;;;;;5039288;28;20200;-72
2023/02/09 05:09:24;;;;;;;4.88;2.90;;;4.10;99.90;;;;;;5045492;28;20695;-72
2023/02/09 05:11:52;;;;;;;3.65;3.35;;;4.10;99.90;;;;;;5040193;28;20220;-72
2023/02/09 05:14:21;;;;;;;3.78;3.15;;;4.10;99.90;;;;;;5045467;28;20268;-72
2023/02/09 05:16:49;;;;;;;5.25;3.78;;;4.10;99.90;;;;;;5044140;28;20592;-72
2023/02/09 05:19:19;;;;;;;3.22;2.60;;;4.10;99.90;;;;;;5038527;28;20197;-72
2023/02/09 05:21:50;;;;;;;4.55;3.83;;;4.10;99.90;;;;;;5041733;28;20197;-72
2023/02/09 05:24:19;;;;;;;6.07;2.90;;;4.10;99.90;;;;;;5036794;28;20363;-72
2023/02/09 05:26:47;;;;;;;4.50;3.13;;;4.10;99.90;;;;;;5034175;28;20637;-72
2023/02/09 05:29:16;;;;;;;4.88;3.80;;;4.10;99.90;;;;;;5037722;28;20307;-72
2023/02/09 05:31:44;;;;;;;3.45;2.83;;;4.10;99.90;;;;;;5038997;28;20526;-72
2023/02/09 05:34:13;;;;;;;3.50;2.90;;;4.10;99.90;;;;;;5042385;28;20324;-67
2023/02/09 05:36:43;;;;;;;4.13;3.25;;;4.10;99.90;;;;;;5031824;28;20782;-68
2023/02/09 05:39:11;;;;;;;4.68;2.72;;;4.10;99.90;;;;;;5027059;28;20300;-67
2023/02/09 05:44:26;;;;;;;3.47;2.60;;;4.10;99.90;;;;;;5030060;28;20225;-67
2023/02/09 05:46:55;;;;;;;5.28;3.70;;;4.10;99.90;;;;;;5030072;28;20267;-67
2023/02/09 05:49:23;;;;;;;3.17;2.88;;;4.00;99.90;;;;;;5051184;28;20169;-68
2023/02/09 05:51:53;;;;;;;4.07;3.35;;;4.10;99.90;;;;;;5049361;28;20567;-67
2023/02/09 05:54:21;;;;;;;4.10;3.45;;;4.00;99.90;;;;;;5034593;28;20210;-68
2023/02/09 05:56:50;;;;;;;5.55;3.88;;;4.00;99.90;;;;;;5036599;28;20282;-68
2023/02/09 05:59:19;;;;;;;4.30;3.03;;;4.10;99.90;;;;;;5043507;28;20259;-67
2023/02/09 06:01:47;;;;;;;4.93;3.33;;;4.10;99.90;;;;;;5040513;28;20645;-67
2023/02/09 06:04:16;;;;;;;4.03;3.30;;;4.10;99.90;;;;;;5034158;28;20238;-67
2023/02/09 06:06:44;;;;;;;3.67;3.25;;;4.00;99.90;;;;;;5036517;28;20201;-68
2023/02/09 06:09:14;;;;;;;4.72;3.50;;;4.00;99.90;;;;;;5035697;28;20320;-68
2023/02/09 06:11:43;;;;;;;3.95;2.70;;;4.00;99.90;;;;;;5034231;28;20233;-68
2023/02/09 06:14:11;;;;;;;3.78;2.83;;;4.10;99.90;;;;;;5037629;28;20248;-67
2023/02/09 06:16:40;;;;;;;3.75;3.00;;;4.00;99.90;;;;;;5038841;28;20189;-68
2023/02/09 06:19:12;;;;;;;4.13;3.40;;;4.00;99.90;;;;;;5036851;28;20278;-68
2023/02/09 06:21:40;;;;;;;4.82;3.20;;;4.00;99.90;;;;;;5035474;28;20244;-68
2023/02/09 06:24:09;;;;;;;4.72;4.20;;;4.00;99.90;;;;;;5042970;28;20561;-68
2023/02/09 06:26:40;;;;;;;4.53;3.20;;;4.00;99.90;;;;;;5039101;28;20193;-68
2023/02/09 06:29:08;;;;;;;3.88;3.10;;;4.00;99.90;;;;;;5039886;28;20820;-68
2023/02/09 06:31:39;;;;;;;3.45;2.33;;;4.00;99.90;;;;;;5045376;28;20205;-68
2023/02/09 06:34:08;;;;;;;5.18;3.15;;;4.00;99.90;;;;;;5034424;28;20217;-68
2023/02/09 06:36:37;;;;;;;4.95;3.53;;;4.00;99.90;;;;;;5031110;28;20526;-68
2023/02/09 06:39:08;;;;;;;4.15;3.22;;;4.00;99.90;;;;;;5038646;28;20723;-68
2023/02/09 06:41:36;;;;;;;3.80;2.50;;;4.00;99.90;;;;;;5039976;28;20575;-68
2023/02/09 06:44:06;;;;;;;3.72;2.95;;;4.00;99.90;;;;;;5040972;28;20223;-68
2023/02/09 06:46:34;;;;;;;3.17;2.85;;;4.00;99.90;;;;;;5044654;28;20578;-68
2023/02/09 06:49:04;;;;;;;3.97;2.92;;;4.00;99.90;;;;;;5037378;28;20689;-68
2023/02/09 06:51:33;;;;;;;5.18;2.85;;;4.00;99.90;;;;;;5036801;28;20201;-68
2023/02/09 06:54:02;;;;;;;4.78;3.10;;;4.00;99.90;;;;;;5048547;28;20223;-68
2023/02/09 06:56:30;;;;;;;5.00;3.60;;;4.00;99.90;;;;;;5047262;28;20196;-68
2023/02/09 06:58:59;;;;;;;3.83;3.35;;;4.00;99.90;;;;;;5045073;28;20250;-68
2023/02/09 07:01:30;;;;;;;4.40;4.00;;;4.00;99.90;;;;;;5043393;28;20192;-68
2023/02/09 07:03:59;;;;;;;3.80;2.88;;;3.90;99.90;;;;;;5045591;28;20246;-68
2023/02/09 07:06:28;;;;;;;3.47;2.45;;;3.90;99.90;;;;;;5039611;28;20195;-68
2023/02/09 07:08:57;;;;;;;4.57;2.83;;;4.00;99.90;;;;;;5039613;28;20281;-68
2023/02/09 07:11:25;;;;;;;5.18;3.13;;;3.90;99.90;;;;;;5046912;28;20197;-68
2023/02/09 07:13:53;;;;;;;4.07;3.28;;;3.90;99.90;;;;;;5038266;28;20581;-68
2023/02/09 07:16:22;;;;;;;4.00;3.35;;;3.90;99.90;;;;;;5048370;28;20194;-68
2023/02/09 07:18:52;;;;;;;5.00;3.15;;;3.90;99.90;;;;;;5030142;28;20224;-69
2023/02/09 07:21:21;;;;;;;4.55;3.15;;;3.90;99.90;;;;;;5041063;28;20205;-66
2023/02/09 07:23:49;;;;;;;4.68;3.25;;;3.90;99.90;;;;;;5052278;28;20260;-68
2023/02/09 07:26:18;;;;;;;3.55;3.00;;;3.90;99.90;;;;;;5035808;28;20203;-68
2023/02/09 07:28:47;;;;;;;4.45;3.25;;;3.90;99.90;;;;;;5039823;28;20217;-68
2023/02/09 07:31:17;;;;;;;5.93;3.15;;;3.90;99.90;;;;;;5044436;28;20747;-68
2023/02/09 07:33:46;;;;;;;4.75;2.95;;;3.90;99.90;;;;;;5043567;28;20220;-68
2023/02/09 07:36:17;;;;;;;6.80;4.78;;;3.90;99.90;;;;;;5036731;28;20221;-68
2023/02/09 07:38:46;;;;;;;5.97;3.63;;;3.90;99.90;;;;;;5059738;28;20668;-68
2023/02/09 07:41:16;;;;;;;5.50;3.40;;;3.90;99.90;;;;;;5038504;28;20189;-68
2023/02/09 07:43:45;;;;;;;6.32;4.43;;;3.90;99.90;;;;;;5044880;28;20887;-68
2023/02/09 07:46:16;;;;;;;4.60;3.83;;;3.90;99.90;;;;;;5040984;28;20220;-68
2023/02/09 07:48:45;;;;;;;5.00;3.63;;;3.90;99.90;;;;;;5033661;28;20221;-68
2023/02/09 07:51:14;;;;;;;5.28;4.07;;;3.90;99.90;;;;;;5037079;28;20205;-68
2023/02/09 07:53:44;;;;;;;3.92;2.90;;;3.90;99.90;;;;;;5040228;28;20720;-68
2023/02/09 07:56:13;;;;;;;4.38;3.30;;;3.90;99.90;;;;;;5040709;28;20217;-68
2023/02/09 07:58:41;;;;;;;4.65;3.45;;;3.90;99.90;;;;;;5033783;28;20321;-68
2023/02/09 08:01:12;;;;;;;6.20;3.88;;;3.90;99.90;;;;;;5037570;28;20465;-68
2023/02/09 08:03:44;;;;;;;3.63;3.22;;;3.90;99.90;;;;;;5039202;28;20303;-68
2023/02/09 08:06:17;;;;;;;4.18;3.40;;;3.90;99.90;;;;;;5034335;28;20689;-69
2023/02/09 08:08:49;;;;;;;4.07;3.10;;;3.90;99.90;;;;;;5037394;28;20230;-68
2023/02/09 08:11:21;;;;;;;5.07;3.92;;;3.80;99.90;;;;;;5039164;28;20228;-68
2023/02/09 08:13:52;;;;;;;4.18;3.78;;;3.90;99.90;;;;;;5029837;28;20232;-68
2023/02/09 08:16:27;;;;;;;8.18;4.15;;;3.90;99.90;;;;;;5041687;28;20185;-69
2023/02/09 08:18:59;;;;;;;5.85;3.30;;;3.90;99.90;;;;;;5039783;28;20216;-68
2023/02/09 08:21:31;;;;;;;5.20;3.53;;;3.90;99.90;;;;;;5035357;28;20204;-68
2023/02/09 08:24:02;;;;;;;5.07;3.00;;;3.90;99.90;;;;;;5031225;28;20261;-68
2023/02/09 08:26:31;;;;;;;4.47;3.35;;;3.80;99.90;;;;;;5042692;28;20274;-68
2023/02/09 08:28:59;;;;;;;3.63;3.08;;;3.80;99.90;;;;;;5032878;28;20703;-68
2023/02/09 08:31:28;;;;;;;5.97;3.28;;;3.80;99.90;;;;;;5041956;28;20284;-68
2023/02/09 08:33:57;;;;;;;4.45;3.13;;;3.80;99.90;;;;;;5041262;28;20220;-68
2023/02/09 08:36:25;;;;;;;4.30;3.58;;;3.80;99.90;;;;;;5032948;28;20188;-68
2023/02/09 08:38:53;;;;;;;4.50;3.55;;;3.90;99.90;;;;;;5042547;28;20216;-68
2023/02/09 08:41:23;;;;;;;3.55;3.25;;;3.80;99.90;;;;;;5035399;28;20756;-69
2023/02/09 08:43:52;;;;;;;5.70;3.40;;;3.90;99.90;;;;;;5028656;28;20631;-68
2023/02/09 08:46:20;;;;;;;4.78;3.33;;;3.90;99.90;;;;;;5037466;28;20228;-69
2023/02/09 08:48:49;;;;;;;5.55;3.85;;;3.90;99.90;;;;;;5043147;28;20226;-69
2023/02/09 08:51:18;;;;;;;3.92;3.53;;;3.90;99.90;;;;;;5042818;28;20261;-69
2023/02/09 08:53:50;;;;;;;4.28;3.45;;;3.90;99.90;;;;;;5051219;28;20315;-69
2023/02/09 08:56:21;;;;;;;6.28;3.70;;;3.90;99.90;;;;;;5037653;28;20186;-72
2023/02/09 08:58:51;;;;;;;4.03;2.90;;;3.90;99.90;;;;;;5040839;28;20576;-72
2023/02/09 09:01:19;;;;;;;8.05;3.25;;;3.90;99.90;;;;;;5034826;28;20258;-72
2023/02/09 09:03:48;;;;;;;3.83;3.42;;;3.90;99.90;;;;;;5038575;28;20213;-72
2023/02/09 09:06:17;;;;;;;4.20;3.00;;;3.90;99.90;;;;;;5038455;28;20209;-72
2023/02/09 09:08:46;;;;;;;4.25;3.10;;;3.90;99.90;;;;;;5044636;28;20309;-72
2023/02/09 09:11:14;;;;;;;3.70;3.35;;;3.90;99.90;;;;;;5037122;28;20563;-72
2023/02/09 09:13:43;;;;;;;5.43;3.20;;;3.90;99.90;;;;;;5033047;28;20217;-72
2023/02/09 09:16:17;;;;;;;4.43;3.60;;;3.90;99.90;;;;;;5033771;28;20713;-72
2023/02/09 09:18:46;;;;;;;4.97;3.50;;;3.90;99.90;;;;;;5038846;28;20565;-72
2023/02/09 09:21:16;;;;;;;3.45;2.95;;;3.90;99.90;;;;;;5035189;28;20189;-72
2023/02/09 09:23:46;;;;;;;5.32;4.13;;;3.90;99.90;;;;;;5033800;28;20245;-72
2023/02/09 09:26:15;;;;;;;5.22;3.30;;;3.90;99.90;;;;;;5031816;28;20220;-73
2023/02/09 09:28:44;;;;;;;4.07;2.90;;;3.90;99.90;;;;;;5036471;28;20304;-72
2023/02/09 09:31:16;;;;;;;5.03;3.53;;;3.90;99.90;;;;;;5038264;28;20227;-73
2023/02/09 09:33:46;;;;;;;3.63;3.20;;;3.90;99.90;;;;;;5052734;28;20223;-73
2023/02/09 09:36:15;;;;;;;3.70;3.08;;;4.00;99.90;;;;;;5036396;28;20200;-73
2023/02/09 09:38:43;;;;;;;3.08;2.60;;;4.00;99.90;;;;;;5036503;28;20221;-73
2023/02/09 09:41:22;;;;;;;3.80;3.00;;;4.00;99.90;;;;;;5032628;28;20670;-73
2023/02/09 09:43:52;;;;;;;7.05;3.58;;;4.00;99.90;;;;;;5035682;28;20225;-72
2023/02/09 09:46:26;;;;;;;4.85;3.00;;;4.00;99.90;;;;;;5036696;28;20217;-72
2023/02/09 09:48:57;;;;;;;3.85;2.70;;;4.00;99.90;;;;;;5033157;28;20696;-72
2023/02/09 09:51:37;;;;;;;4.28;2.95;;;4.00;99.90;;;;;;5036485;28;20254;-72
2023/02/09 09:54:12;;;;;;;3.63;3.17;;;4.00;99.90;;;;;;5032178;28;20260;-72
2023/02/09 09:56:41;;;;;;;3.83;2.75;;;4.00;99.90;;;;;;5034215;28;20224;-72
2023/02/09 09:59:17;;;;;;;3.30;2.78;;;4.00;99.90;;;;;;5031866;28;20250;-72
2023/02/09 10:01:48;;;;;;;3.40;2.70;;;4.00;99.90;;;;;;5043949;28;20196;-72
2023/02/09 10:04:18;;;;;;;4.22;2.88;;;4.00;99.90;;;;;;5042267;28;20221;-72
2023/02/09 10:06:51;;;;;;;4.43;3.20;;;4.00;99.90;;;;;;5036000;28;20624;-72
2023/02/09 10:09:32;;;;;;;4.07;3.40;;;4.10;99.90;;;;;;5035258;28;20296;-72
2023/02/09 10:12:07;;;;;;;3.95;2.85;;;4.00;99.90;;;;;;5026729;28;20201;-72
2023/02/09 10:14:35;;;;;;;5.03;3.40;;;4.00;99.90;;;;;;5029273;28;20628;-72
2023/02/09 10:17:06;;;;;;;4.10;3.28;;;4.10;99.90;;;;;;5037411;28;20696;-72
2023/02/09 10:19:34;;;;;;;3.70;3.25;;;4.00;99.90;;;;;;5036695;28;20485;-72
2023/02/09 10:22:03;;;;;;;2.75;2.45;;;4.00;99.90;;;;;;5032383;28;20234;-69
2023/02/09 10:24:35;;;;;;;3.10;2.42;;;4.00;99.90;;;;;;5035640;28;20346;-69
2023/02/09 10:27:07;;;;;;;4.97;3.30;;;4.00;99.90;;;;;;5035179;28;20239;-69
2023/02/09 10:29:36;;;;;;;3.85;3.33;;;4.00;99.90;;;;;;5023360;28;20707;-68
2023/02/09 10:32:13;;;;;;;3.35;2.70;;;4.00;99.90;;;;;;5031357;28;20471;-68
2023/02/09 10:34:45;;;;;;;4.45;3.22;;;4.00;99.90;;;;;;5039704;28;20303;-68
2023/02/09 10:37:25;;;;;;;4.70;3.30;;;4.00;99.90;;;;;;5042203;28;20185;-68
2023/02/09 10:40:05;;;;;;;3.53;3.00;;;4.00;99.90;;;;;;5043186;28;20193;-68
2023/02/09 10:42:36;;;;;;;3.88;2.92;;;4.00;99.90;;;;;;5032557;28;20249;-69
2023/02/09 10:45:11;;;;;;;3.28;2.90;;;4.00;99.90;;;;;;5030972;28;20220;-69
2023/02/09 10:47:41;;;;;;;5.13;3.38;;;4.00;99.90;;;;;;5031536;28;20326;-69
2023/02/09 10:50:18;;;;;;;4.38;3.20;;;4.00;99.90;;;;;;5040331;28;20199;-69
2023/02/09 10:52:59;;;;;;;2.58;2.35;;;4.00;99.90;;;;;;5031027;28;20684;-69
2023/02/09 10:55:34;;;;;;;5.88;3.25;;;4.00;99.90;;;;;;5039659;28;20217;-69
2023/02/09 10:58:23;;;;;;;3.00;2.60;;;4.00;99.90;;;;;;5042429;28;20889;-69
2023/02/09 11:01:01;;;;;;;4.18;2.80;;;4.00;99.90;;;;;;5036150;28;20271;-69
2023/02/09 11:03:31;;;;;;;4.40;3.22;;;4.00;99.90;;;;;;5035641;28;20784;-69
2023/02/09 11:06:03;;;;;;;3.65;2.80;;;4.00;99.90;;;;;;5037439;28;20271;-68
2023/02/09 11:08:42;;;;;;;5.40;3.33;;;4.00;99.90;;;;;;5037720;28;20225;-68
2023/02/09 11:11:24;;;;;;;4.80;3.33;;;4.00;99.90;;;;;;5031446;28;20198;-68
2023/02/09 11:13:53;;;;;;;4.00;3.00;;;4.00;99.90;;;;;;5028714;28;20588;-68
2023/02/09 11:16:43;;;;;;;3.67;3.20;;;4.00;99.90;;;;;;5024989;28;20204;-68
2023/02/09 11:19:25;;;;;;;3.47;3.00;;;4.00;99.90;;;;;;5034136;28;20349;-68
2023/02/09 11:22:02;;;;;;;5.38;2.95;;;4.00;99.90;;;;;;5037193;28;20244;-68
2023/02/09 11:24:50;;;;;;;3.38;3.08;;;4.00;99.90;;;;;;5038673;28;20233;-68
2023/02/09 11:27:34;;;;;;;4.03;3.20;;;4.00;99.90;;;;;;5035306;28;20575;-68
2023/02/09 11:30:15;;;;;;;3.97;3.58;;;4.00;99.90;;;;;;5054090;28;20708;-68
2023/02/09 11:32:51;;;;;;;4.97;3.42;;;4.00;99.90;;;;;;5030674;28;20221;-68
2023/02/09 11:35:26;;;;;;;3.40;2.75;;;4.00;99.90;;;;;;5047214;28;20724;-68
2023/02/09 11:37:59;;;;;;;3.60;2.88;;;3.90;99.90;;;;;;5039680;28;20189;-68
2023/02/09 11:40:33;;;;;;;4.70;3.53;;;3.90;99.90;;;;;;5035752;28;20197;-69
2023/02/09 11:43:17;;;;;;;3.67;3.20;;;3.90;99.90;;;;;;5046016;28;20533;-68
2023/02/09 11:45:49;;;;;;;3.20;2.90;;;3.90;99.90;;;;;;5028681;28;20216;-68
2023/02/09 11:48:23;;;;;;;3.13;2.75;;;4.00;99.90;;;;;;5042450;28;20225;-68
2023/02/09 11:51:00;;;;;;;4.15;2.95;;;3.90;99.90;;;;;;5042049;28;20287;-68
2023/02/09 11:53:36;;;;;;;3.25;2.60;;;3.90;99.90;;;;;;5041871;28;20217;-68
2023/02/09 11:56:08;;;;;;;7.55;3.38;;;3.90;99.90;;;;;;5040583;28;20212;-68
2023/02/09 11:58:50;;;;;;;4.85;2.80;;;3.90;99.90;;;;;;5039132;28;20223;-68
2023/02/09 12:01:37;;;;;;;3.40;2.72;;;3.90;99.90;;;;;;5042461;28;20193;-68
2023/02/09 12:04:15;;;;;;;4.57;3.50;;;4.00;99.90;;;;;;5039550;28;20590;-68
2023/02/09 12:06:48;;;;;;;4.63;3.30;;;3.90;99.90;;;;;;5039461;28;20227;-68
2023/02/09 12:09:38;;;;;;;5.30;3.25;;;3.90;99.90;;;;;;5032727;28;20219;-68
2023/02/09 12:12:21;;;;;;;4.65;3.28;;;3.90;99.90;;;;;;5034583;28;20196;-68
2023/02/09 12:15:04;;;;;;;4.45;3.08;;;3.90;99.90;;;;;;5035612;28;20324;-68
2023/02/09 12:17:42;;;;;;;4.15;3.72;;;3.90;99.90;;;;;;5033757;28;20220;-68
2023/02/09 12:20:27;;;;;;;3.67;3.30;;;3.90;99.90;;;;;;5044151;28;20212;-68
2023/02/09 12:23:03;;;;;;;3.38;2.30;;;3.90;99.90;;;;;;5041144;28;20223;-68
2023/02/09 12:25:49;;;;;;;4.72;3.30;;;3.90;99.90;;;;;;5061110;28;20311;-68
2023/02/09 12:28:37;;;;;;;3.35;3.00;;;3.90;99.90;;;;;;5044595;28;20243;-68
2023/02/09 12:31:12;;;;;;;6.00;3.25;;;3.90;99.90;;;;;;5049141;28;20215;-68
2023/02/09 12:34:20;;;;;;;3.53;3.22;;;3.90;99.90;;;;;;5038658;28;20228;-68
2023/02/09 12:37:17;;;;;;;3.35;2.67;;;3.90;99.90;;;;;;5033570;28;20595;-68
2023/02/09 12:40:24;;;;;;;4.78;3.10;;;3.90;99.90;;;;;;5025014;28;20220;-68
2023/02/09 12:43:37;;;;;;;4.10;3.58;;;3.90;99.90;;;;;;5033324;28;20256;-68
2023/02/09 12:46:52;;;;;;;5.22;3.47;;;3.90;99.90;;;;;;5008968;28;20220;-69
2023/02/09 12:49:30;;;;;;;6.68;4.60;;;3.90;99.90;;;;;;5037897;28;20231;-69
2023/02/09 12:52:17;;;;;;;5.13;4.30;;;3.90;99.90;;;;;;5032786;28;20561;-69
2023/02/09 12:54:50;;;;;;;5.97;4.15;;;3.90;99.90;;;;;;5027025;28;20559;-69
2023/02/09 12:57:54;;;;;;;4.22;3.40;;;3.90;99.90;;;;;;5043976;28;21005;-69
2023/02/09 13:00:39;;;;;;;6.70;4.90;;;4.00;99.90;;;;;;5038265;28;20284;-69
2023/02/09 13:03:21;;;;;;;6.43;4.13;;;3.90;99.90;;;;;;5046778;28;20566;-69
2023/02/09 13:05:50;;;;;;;5.25;3.63;;;3.90;99.90;;;;;;5027654;28;20701;-69
2023/02/09 13:08:47;;;;;;;4.60;4.10;;;3.90;99.90;;;;;;5025740;28;20217;-69
2023/02/09 13:11:30;;;;;;;4.20;3.70;;;3.90;99.90;;;;;;5029781;28;20197;-69
2023/02/09 13:14:04;;;;;;;5.10;3.80;;;4.00;99.90;;;;;;5040413;28;20587;-69
2023/02/09 13:17:02;;;;;;;5.53;3.95;;;3.90;99.90;;;;;;5035370;28;20568;-69
2023/02/09 13:19:53;;;;;;;4.72;3.58;;;3.90;99.90;;;;;;5043377;28;20295;-69
2023/02/09 13:22:31;;;;;;;6.28;3.92;;;4.00;99.90;;;;;;5043510;28;20197;-69
2023/02/09 13:25:07;;;;;;;4.10;3.30;;;3.90;99.90;;;;;;5037408;28;20274;-69
2023/02/09 13:27:43;;;;;;;6.00;4.07;;;4.00;99.90;;;;;;5039331;28;20287;-69
2023/02/09 13:30:25;;;;;;;6.35;3.97;;;4.00;99.90;;;;;;5041413;28;20209;-69
2023/02/09 13:33:03;;;;;;;4.25;3.35;;;3.90;99.90;;;;;;5028138;28;20201;-68
2023/02/09 13:35:36;;;;;;;3.42;3.03;;;3.90;99.90;;;;;;5027898;28;20214;-69